LSI281 EDDK-LICJ
Flight info
| Callsign | LSI281 |
|---|---|
| Flight time | 1h 59m |
| Altitude | 31000 |
| Route | KUMIK7K KUMIK Y854 BOMBI/N0480F320 DCT GIGET DCT ABUKA/N0483F310 DCT BATUB/N0480F330 DCT TIRUL M738 NATAG DCT LORLO DCT PELEG DCT BAGNO DCT LURON |
| Aircraft | B77L/H-SDE1E2E3FGHIJ2J3J4J5M1RWXY/LB1D1 |
Departure
| Time | 2026-05-07 17:41 |
|---|---|
| Airport | Cologne Bonn Airport (EDDK) |
Arrival
| Time | 2026-05-07 19:41 |
|---|---|
| Airport | Falcone–Borsellino Airport (LICJ) |
| Time | Latitude | Longitude | Altitude | Speed | Heading |
|---|---|---|---|---|---|
| 2026-05-07 17:21 | 50.87123 | 7.13429 | 242 ft | 0 kts | 227° |
| 2026-05-07 17:30 | 50.87125 | 7.13433 | 242 ft | 3 kts | 224° |
| 2026-05-07 17:30 | 50.87130 | 7.13440 | 242 ft | 0 kts | 216° |
| 2026-05-07 17:31 | 50.87144 | 7.13455 | 242 ft | 3 kts | 202° |
| 2026-05-07 17:31 | 50.87163 | 7.13463 | 242 ft | 3 kts | 181° |
| 2026-05-07 17:31 | 50.87183 | 7.13460 | 241 ft | 3 kts | 160° |
| 2026-05-07 17:32 | 50.87201 | 7.13450 | 241 ft | 3 kts | 160° |
| 2026-05-07 17:32 | 50.87219 | 7.13439 | 241 ft | 3 kts | 160° |
| 2026-05-07 17:32 | 50.87236 | 7.13429 | 240 ft | 2 kts | 154° |
| 2026-05-07 17:32 | 50.87244 | 7.13423 | 240 ft | 1 kts | 147° |
| 2026-05-07 17:33 | 50.87243 | 7.13424 | 240 ft | 0 kts | 147° |
| 2026-05-07 17:34 | 50.87216 | 7.13467 | 241 ft | 10 kts | 130° |
| 2026-05-07 17:34 | 50.87183 | 7.13529 | 242 ft | 0 kts | 129° |
| 2026-05-07 17:35 | 50.87176 | 7.13543 | 242 ft | 3 kts | 129° |
| 2026-05-07 17:35 | 50.87161 | 7.13571 | 243 ft | 5 kts | 133° |
| 2026-05-07 17:35 | 50.87111 | 7.13646 | 245 ft | 14 kts | 136° |
| 2026-05-07 17:35 | 50.87018 | 7.13782 | 247 ft | 21 kts | 138° |
| 2026-05-07 17:36 | 50.86912 | 7.13935 | 247 ft | 21 kts | 136° |
| 2026-05-07 17:36 | 50.86802 | 7.14086 | 253 ft | 21 kts | 146° |
| 2026-05-07 17:36 | 50.86681 | 7.14213 | 260 ft | 21 kts | 140° |
| 2026-05-07 17:36 | 50.86573 | 7.14366 | 262 ft | 21 kts | 141° |
| 2026-05-07 17:37 | 50.86466 | 7.14522 | 265 ft | 21 kts | 137° |
| 2026-05-07 17:37 | 50.86359 | 7.14678 | 269 ft | 21 kts | 137° |
| 2026-05-07 17:37 | 50.86252 | 7.14833 | 274 ft | 21 kts | 137° |
| 2026-05-07 17:37 | 50.86145 | 7.14988 | 277 ft | 21 kts | 137° |
| 2026-05-07 17:38 | 50.86037 | 7.15142 | 281 ft | 21 kts | 136° |
| 2026-05-07 17:38 | 50.85931 | 7.15300 | 287 ft | 21 kts | 136° |
| 2026-05-07 17:38 | 50.85825 | 7.15457 | 298 ft | 21 kts | 137° |
| 2026-05-07 17:38 | 50.85718 | 7.15612 | 303 ft | 21 kts | 137° |
| 2026-05-07 17:39 | 50.85612 | 7.15768 | 305 ft | 21 kts | 137° |
| 2026-05-07 17:39 | 50.85510 | 7.15920 | 308 ft | 20 kts | 136° |
| 2026-05-07 17:39 | 50.85410 | 7.16072 | 308 ft | 20 kts | 136° |
| 2026-05-07 17:39 | 50.85335 | 7.16249 | 312 ft | 20 kts | 97° |
| 2026-05-07 17:40 | 50.85387 | 7.16444 | 317 ft | 20 kts | 44° |
| 2026-05-07 17:40 | 50.85515 | 7.16512 | 317 ft | 20 kts | 355° |
| 2026-05-07 17:40 | 50.85635 | 7.16402 | 317 ft | 21 kts | 318° |
| 2026-05-07 17:40 | 50.85867 | 7.16065 | 308 ft | 92 kts | 317° |
| 2026-05-07 17:41 | 50.86613 | 7.15012 | 270 ft | 193 kts | 321° |
| 2026-05-07 17:41 | 50.87688 | 7.13399 | 877 ft | 221 kts | 316° |
| 2026-05-07 17:41 | 50.88730 | 7.11642 | 2097 ft | 218 kts | 313° |
| 2026-05-07 17:41 | 50.89965 | 7.10229 | 2778 ft | 224 kts | 346° |
| 2026-05-07 17:42 | 50.91530 | 7.10385 | 3290 ft | 239 kts | 23° |
| 2026-05-07 17:42 | 50.92786 | 7.12136 | 4168 ft | 238 kts | 56° |
| 2026-05-07 17:42 | 50.93621 | 7.14434 | 5314 ft | 247 kts | 63° |
| 2026-05-07 17:42 | 50.94420 | 7.16946 | 6517 ft | 259 kts | 62° |
| 2026-05-07 17:43 | 50.95260 | 7.19538 | 7360 ft | 268 kts | 62° |
| 2026-05-07 17:43 | 50.96119 | 7.22215 | 8100 ft | 276 kts | 63° |
| 2026-05-07 17:43 | 50.96995 | 7.24975 | 8905 ft | 283 kts | 63° |
| 2026-05-07 17:43 | 50.97881 | 7.27776 | 9759 ft | 287 kts | 63° |
| 2026-05-07 17:44 | 50.98772 | 7.30599 | 10511 ft | 294 kts | 63° |
| 2026-05-07 17:44 | 50.99720 | 7.33600 | 10844 ft | 318 kts | 63° |
| 2026-05-07 17:44 | 51.00750 | 7.36863 | 11066 ft | 344 kts | 63° |
| 2026-05-07 17:44 | 51.01695 | 7.40532 | 11221 ft | 367 kts | 78° |
| 2026-05-07 17:45 | 51.01691 | 7.44586 | 11769 ft | 379 kts | 103° |
| 2026-05-07 17:45 | 51.00952 | 7.48611 | 12488 ft | 384 kts | 108° |
| 2026-05-07 17:45 | 51.00119 | 7.52676 | 13289 ft | 391 kts | 108° |
| 2026-05-07 17:45 | 50.99267 | 7.56821 | 14119 ft | 397 kts | 108° |
| 2026-05-07 17:46 | 50.98422 | 7.60995 | 14946 ft | 400 kts | 108° |
| 2026-05-07 17:46 | 50.97574 | 7.65235 | 15743 ft | 404 kts | 108° |
| 2026-05-07 17:46 | 50.96726 | 7.69522 | 16495 ft | 410 kts | 108° |
| 2026-05-07 17:46 | 50.95871 | 7.73857 | 17254 ft | 415 kts | 108° |
| 2026-05-07 17:47 | 50.95002 | 7.78250 | 18004 ft | 420 kts | 108° |
| 2026-05-07 17:47 | 50.94052 | 7.82646 | 18684 ft | 423 kts | 115° |
| 2026-05-07 17:47 | 50.92572 | 7.86681 | 19313 ft | 426 kts | 126° |
| 2026-05-07 17:47 | 50.90846 | 7.90522 | 19965 ft | 430 kts | 127° |
| 2026-05-07 17:48 | 50.89119 | 7.94402 | 20607 ft | 434 kts | 126° |
| 2026-05-07 17:48 | 50.87414 | 7.98383 | 21257 ft | 438 kts | 125° |
| 2026-05-07 17:48 | 50.86296 | 8.01049 | 21685 ft | 440 kts | 124° |
| 2026-05-07 17:48 | 50.84598 | 8.05102 | 22295 ft | 442 kts | 126° |
| 2026-05-07 17:49 | 50.82556 | 8.08756 | 22779 ft | 447 kts | 143° |
| 2026-05-07 17:49 | 50.79973 | 8.11450 | 23266 ft | 447 kts | 150° |
| 2026-05-07 17:49 | 50.77287 | 8.14014 | 23783 ft | 452 kts | 150° |
| 2026-05-07 17:49 | 50.74590 | 8.16602 | 24323 ft | 455 kts | 150° |
| 2026-05-07 17:50 | 50.71875 | 8.19250 | 24880 ft | 458 kts | 149° |
| 2026-05-07 17:50 | 50.69182 | 8.21913 | 25395 ft | 461 kts | 149° |
| 2026-05-07 17:50 | 50.66663 | 8.24427 | 25839 ft | 465 kts | 148° |
| 2026-05-07 17:50 | 50.63844 | 8.27252 | 26350 ft | 468 kts | 148° |
| 2026-05-07 17:51 | 50.61083 | 8.30021 | 26815 ft | 472 kts | 148° |
| 2026-05-07 17:51 | 50.58300 | 8.32809 | 27290 ft | 476 kts | 148° |
| 2026-05-07 17:51 | 50.55499 | 8.35610 | 27776 ft | 479 kts | 148° |
| 2026-05-07 17:51 | 50.52688 | 8.38414 | 28242 ft | 482 kts | 148° |
| 2026-05-07 17:52 | 50.49834 | 8.41256 | 28685 ft | 485 kts | 148° |
| 2026-05-07 17:52 | 50.46973 | 8.44101 | 29097 ft | 489 kts | 148° |
| 2026-05-07 17:52 | 50.44094 | 8.46961 | 29496 ft | 492 kts | 148° |
| 2026-05-07 17:52 | 50.41190 | 8.49841 | 29884 ft | 495 kts | 148° |
| 2026-05-07 17:53 | 50.38282 | 8.52713 | 30301 ft | 495 kts | 149° |
| 2026-05-07 17:53 | 50.35305 | 8.55390 | 30756 ft | 494 kts | 152° |
| 2026-05-07 17:53 | 50.32271 | 8.57926 | 31098 ft | 495 kts | 153° |
| 2026-05-07 17:53 | 50.29219 | 8.60444 | 31054 ft | 495 kts | 153° |
| 2026-05-07 17:54 | 50.23519 | 8.65162 | 31049 ft | 493 kts | 153° |
| 2026-05-07 17:54 | 50.17473 | 8.70206 | 31050 ft | 493 kts | 153° |
| 2026-05-07 17:55 | 50.11400 | 8.75176 | 31048 ft | 493 kts | 156° |
| 2026-05-07 17:55 | 50.04923 | 8.78624 | 31053 ft | 492 kts | 167° |
| 2026-05-07 17:56 | 49.98285 | 8.81163 | 31049 ft | 492 kts | 167° |
| 2026-05-07 17:56 | 49.91631 | 8.83747 | 31047 ft | 493 kts | 167° |
| 2026-05-07 17:57 | 49.86106 | 8.85929 | 31047 ft | 492 kts | 167° |
| 2026-05-07 17:57 | 49.78351 | 8.89009 | 31048 ft | 493 kts | 167° |
| 2026-05-07 17:58 | 49.75083 | 8.90305 | 31226 ft | 490 kts | 167° |
| 2026-05-07 17:58 | 49.71785 | 8.91611 | 31625 ft | 490 kts | 167° |
| 2026-05-07 17:58 | 49.68483 | 8.92915 | 32001 ft | 490 kts | 167° |
| 2026-05-07 17:58 | 49.65172 | 8.94220 | 32385 ft | 490 kts | 167° |
| 2026-05-07 17:59 | 49.61819 | 8.95540 | 32783 ft | 491 kts | 167° |
| 2026-05-07 17:59 | 49.58516 | 8.96838 | 33173 ft | 490 kts | 167° |
| 2026-05-07 17:59 | 49.55256 | 8.98117 | 33576 ft | 490 kts | 167° |
| 2026-05-07 17:59 | 49.51914 | 8.99426 | 33984 ft | 489 kts | 167° |
| 2026-05-07 18:00 | 49.48666 | 9.00698 | 34323 ft | 488 kts | 168° |
| 2026-05-07 18:00 | 49.45384 | 9.01980 | 34670 ft | 486 kts | 168° |
| 2026-05-07 18:00 | 49.42064 | 9.03276 | 35007 ft | 485 kts | 168° |
| 2026-05-07 18:00 | 49.38776 | 9.04556 | 35043 ft | 491 kts | 168° |
| 2026-05-07 18:01 | 49.32132 | 9.07135 | 35053 ft | 499 kts | 168° |
| 2026-05-07 18:01 | 49.25413 | 9.09743 | 35039 ft | 497 kts | 168° |
| 2026-05-07 18:02 | 49.15405 | 9.13614 | 35043 ft | 493 kts | 168° |
| 2026-05-07 18:03 | 49.08755 | 9.16176 | 35048 ft | 492 kts | 168° |
| 2026-05-07 18:03 | 49.02125 | 9.18722 | 35050 ft | 492 kts | 168° |
| 2026-05-07 18:04 | 48.95485 | 9.21265 | 35049 ft | 492 kts | 168° |
| 2026-05-07 18:04 | 48.88837 | 9.23804 | 35047 ft | 493 kts | 168° |
| 2026-05-07 18:05 | 48.82166 | 9.26345 | 35051 ft | 494 kts | 168° |
| 2026-05-07 18:05 | 48.75491 | 9.28881 | 35052 ft | 495 kts | 168° |
| 2026-05-07 18:06 | 48.68795 | 9.31412 | 35045 ft | 496 kts | 169° |
| 2026-05-07 18:06 | 48.62097 | 9.33934 | 35051 ft | 496 kts | 169° |
| 2026-05-07 18:07 | 48.55393 | 9.36459 | 35049 ft | 496 kts | 169° |
| 2026-05-07 18:07 | 48.48696 | 9.38979 | 35049 ft | 497 kts | 169° |
| 2026-05-07 18:08 | 48.41986 | 9.41496 | 35048 ft | 496 kts | 169° |
| 2026-05-07 18:08 | 48.35305 | 9.43995 | 35044 ft | 496 kts | 169° |
| 2026-05-07 18:09 | 48.28605 | 9.46495 | 35038 ft | 496 kts | 169° |
| 2026-05-07 18:09 | 48.21907 | 9.48988 | 35037 ft | 496 kts | 169° |
| 2026-05-07 18:10 | 48.15207 | 9.51477 | 35032 ft | 496 kts | 169° |
| 2026-05-07 18:10 | 48.08512 | 9.53956 | 35033 ft | 496 kts | 169° |
| 2026-05-07 18:11 | 48.02048 | 9.57174 | 35029 ft | 500 kts | 159° |
| 2026-05-07 18:11 | 47.95954 | 9.62266 | 35027 ft | 505 kts | 149° |
| 2026-05-07 18:12 | 47.90172 | 9.68247 | 35020 ft | 506 kts | 148° |
| 2026-05-07 18:12 | 47.84634 | 9.73988 | 35039 ft | 507 kts | 148° |
| 2026-05-07 18:13 | 47.78825 | 9.79929 | 35028 ft | 507 kts | 149° |
| 2026-05-07 18:13 | 47.72988 | 9.85845 | 35013 ft | 508 kts | 149° |
| 2026-05-07 18:14 | 47.67148 | 9.91740 | 35028 ft | 508 kts | 149° |
| 2026-05-07 18:14 | 47.61301 | 9.97632 | 35024 ft | 508 kts | 149° |
| 2026-05-07 18:15 | 47.55443 | 10.03521 | 35033 ft | 509 kts | 149° |
| 2026-05-07 18:15 | 47.49591 | 10.09388 | 35042 ft | 509 kts | 149° |
| 2026-05-07 18:16 | 47.43724 | 10.15254 | 35044 ft | 509 kts | 149° |
| 2026-05-07 18:16 | 47.37846 | 10.21115 | 35034 ft | 509 kts | 150° |
| 2026-05-07 18:17 | 47.31977 | 10.26952 | 35039 ft | 509 kts | 150° |
| 2026-05-07 18:17 | 47.26095 | 10.32785 | 35044 ft | 509 kts | 150° |
| 2026-05-07 18:18 | 47.20216 | 10.38602 | 35034 ft | 509 kts | 150° |
| 2026-05-07 18:18 | 47.14339 | 10.44402 | 35050 ft | 509 kts | 150° |
| 2026-05-07 18:19 | 47.08438 | 10.50128 | 35058 ft | 505 kts | 154° |
| 2026-05-07 18:19 | 47.02141 | 10.54578 | 35024 ft | 500 kts | 164° |
| 2026-05-07 18:20 | 46.95522 | 10.57568 | 35036 ft | 497 kts | 168° |
| 2026-05-07 18:20 | 46.88882 | 10.60491 | 35032 ft | 499 kts | 168° |
| 2026-05-07 18:21 | 46.82277 | 10.63478 | 35019 ft | 500 kts | 168° |
| 2026-05-07 18:21 | 46.75595 | 10.66469 | 35043 ft | 499 kts | 168° |
| 2026-05-07 18:22 | 46.68950 | 10.69428 | 35011 ft | 498 kts | 168° |
| 2026-05-07 18:22 | 46.62376 | 10.72327 | 35024 ft | 498 kts | 168° |
| 2026-05-07 18:23 | 46.55752 | 10.75240 | 35041 ft | 497 kts | 168° |
| 2026-05-07 18:23 | 46.49139 | 10.78148 | 35050 ft | 497 kts | 169° |
| 2026-05-07 18:24 | 46.42529 | 10.81048 | 35056 ft | 495 kts | 169° |
| 2026-05-07 18:24 | 46.35939 | 10.83932 | 35066 ft | 494 kts | 169° |
| 2026-05-07 18:25 | 46.29344 | 10.86811 | 35064 ft | 495 kts | 169° |
| 2026-05-07 18:25 | 46.22735 | 10.89688 | 35067 ft | 497 kts | 169° |
| 2026-05-07 18:26 | 46.16115 | 10.92564 | 35048 ft | 496 kts | 169° |
| 2026-05-07 18:26 | 46.09510 | 10.95428 | 35066 ft | 496 kts | 169° |
| 2026-05-07 18:27 | 46.02892 | 10.98285 | 35053 ft | 496 kts | 169° |
| 2026-05-07 18:27 | 45.96283 | 11.01133 | 35046 ft | 497 kts | 169° |
| 2026-05-07 18:28 | 45.89668 | 11.03978 | 35027 ft | 495 kts | 169° |
| 2026-05-07 18:28 | 45.83077 | 11.06809 | 35003 ft | 494 kts | 169° |
| 2026-05-07 18:29 | 45.76510 | 11.09621 | 35026 ft | 493 kts | 169° |
| 2026-05-07 18:29 | 45.69923 | 11.12428 | 34992 ft | 494 kts | 169° |
| 2026-05-07 18:30 | 45.63337 | 11.15231 | 34981 ft | 493 kts | 169° |
| 2026-05-07 18:30 | 45.56769 | 11.18023 | 34977 ft | 492 kts | 170° |
| 2026-05-07 18:31 | 45.50261 | 11.20781 | 34973 ft | 491 kts | 170° |
| 2026-05-07 18:31 | 45.43713 | 11.23548 | 34962 ft | 491 kts | 170° |
| 2026-05-07 18:32 | 45.37175 | 11.26305 | 34971 ft | 489 kts | 170° |
| 2026-05-07 18:32 | 45.30651 | 11.29050 | 34984 ft | 489 kts | 170° |
| 2026-05-07 18:33 | 45.24134 | 11.31784 | 34987 ft | 488 kts | 170° |
| 2026-05-07 18:33 | 45.17618 | 11.34512 | 34998 ft | 488 kts | 170° |
| 2026-05-07 18:34 | 45.11097 | 11.37235 | 34999 ft | 489 kts | 170° |
| 2026-05-07 18:34 | 45.04569 | 11.39954 | 35010 ft | 489 kts | 171° |
| 2026-05-07 18:35 | 44.98047 | 11.42666 | 35022 ft | 489 kts | 171° |
| 2026-05-07 18:35 | 44.92615 | 11.44919 | 35025 ft | 489 kts | 171° |
| 2026-05-07 18:36 | 44.86086 | 11.47621 | 35027 ft | 489 kts | 171° |
| 2026-05-07 18:36 | 44.79550 | 11.50320 | 35014 ft | 489 kts | 171° |
| 2026-05-07 18:37 | 44.73012 | 11.53013 | 35004 ft | 489 kts | 171° |
| 2026-05-07 18:37 | 44.66476 | 11.55700 | 34999 ft | 489 kts | 171° |
| 2026-05-07 18:38 | 44.59944 | 11.58378 | 34992 ft | 489 kts | 171° |
| 2026-05-07 18:38 | 44.53410 | 11.61051 | 34993 ft | 489 kts | 171° |
| 2026-05-07 18:39 | 44.46875 | 11.63719 | 34998 ft | 489 kts | 171° |
| 2026-05-07 18:39 | 44.40347 | 11.66378 | 35009 ft | 489 kts | 171° |
| 2026-05-07 18:40 | 44.33820 | 11.69031 | 35014 ft | 488 kts | 171° |
| 2026-05-07 18:40 | 44.27291 | 11.71679 | 35000 ft | 489 kts | 171° |
| 2026-05-07 18:41 | 44.20741 | 11.74022 | 34991 ft | 481 kts | 178° |
| 2026-05-07 18:41 | 44.14138 | 11.75296 | 34992 ft | 478 kts | 180° |
| 2026-05-07 18:42 | 44.07539 | 11.76539 | 34983 ft | 478 kts | 179° |
| 2026-05-07 18:42 | 44.00948 | 11.77841 | 34988 ft | 478 kts | 179° |
| 2026-05-07 18:43 | 43.94360 | 11.79156 | 34988 ft | 478 kts | 179° |
| 2026-05-07 18:43 | 43.87771 | 11.80526 | 34984 ft | 481 kts | 177° |
| 2026-05-07 18:44 | 43.81210 | 11.82350 | 34969 ft | 481 kts | 176° |
| 2026-05-07 18:44 | 43.74663 | 11.84229 | 35004 ft | 481 kts | 176° |
| 2026-05-07 18:45 | 43.68101 | 11.86102 | 34988 ft | 481 kts | 176° |
| 2026-05-07 18:45 | 43.61537 | 11.87952 | 34989 ft | 481 kts | 176° |
| 2026-05-07 18:46 | 43.54973 | 11.89790 | 34990 ft | 481 kts | 176° |
| 2026-05-07 18:46 | 43.48422 | 11.91617 | 34983 ft | 480 kts | 176° |
| 2026-05-07 18:47 | 43.41872 | 11.93442 | 34991 ft | 480 kts | 176° |
| 2026-05-07 18:47 | 43.35327 | 11.95265 | 34972 ft | 479 kts | 176° |
| 2026-05-07 18:48 | 43.28800 | 11.97076 | 34976 ft | 478 kts | 176° |
| 2026-05-07 18:48 | 43.22326 | 11.98868 | 34971 ft | 477 kts | 176° |
| 2026-05-07 18:49 | 43.15821 | 12.00666 | 34970 ft | 476 kts | 176° |
| 2026-05-07 18:49 | 43.09334 | 12.02455 | 34969 ft | 475 kts | 176° |
| 2026-05-07 18:50 | 43.02851 | 12.04238 | 34982 ft | 474 kts | 176° |
| 2026-05-07 18:50 | 42.96380 | 12.06014 | 34974 ft | 475 kts | 176° |
| 2026-05-07 18:51 | 42.89909 | 12.07787 | 34970 ft | 474 kts | 177° |
| 2026-05-07 18:51 | 42.83435 | 12.09557 | 34965 ft | 474 kts | 177° |
| 2026-05-07 18:52 | 42.76956 | 12.11321 | 34970 ft | 475 kts | 177° |
| 2026-05-07 18:52 | 42.70466 | 12.13088 | 34959 ft | 475 kts | 177° |
| 2026-05-07 18:53 | 42.63985 | 12.14850 | 34959 ft | 475 kts | 176° |
| 2026-05-07 18:53 | 42.57508 | 12.16606 | 34958 ft | 475 kts | 176° |
| 2026-05-07 18:54 | 42.51033 | 12.18358 | 34964 ft | 474 kts | 176° |
| 2026-05-07 18:54 | 42.44560 | 12.20103 | 34960 ft | 474 kts | 176° |
| 2026-05-07 18:55 | 42.38093 | 12.21845 | 34963 ft | 474 kts | 176° |
| 2026-05-07 18:55 | 42.31627 | 12.23583 | 34950 ft | 473 kts | 176° |
| 2026-05-07 18:56 | 42.25160 | 12.25317 | 34956 ft | 474 kts | 176° |
| 2026-05-07 18:56 | 42.18689 | 12.27047 | 34997 ft | 475 kts | 176° |
| 2026-05-07 18:57 | 42.12194 | 12.28781 | 35040 ft | 476 kts | 176° |
| 2026-05-07 18:57 | 42.05688 | 12.30516 | 35053 ft | 477 kts | 175° |
| 2026-05-07 18:58 | 41.99166 | 12.32251 | 34945 ft | 478 kts | 175° |
| 2026-05-07 18:58 | 41.92631 | 12.33986 | 34931 ft | 479 kts | 175° |
| 2026-05-07 18:59 | 41.86095 | 12.35717 | 34939 ft | 479 kts | 175° |
| 2026-05-07 18:59 | 41.79550 | 12.37448 | 34937 ft | 479 kts | 175° |
| 2026-05-07 19:00 | 41.73007 | 12.39174 | 34968 ft | 479 kts | 175° |
| 2026-05-07 19:00 | 41.66467 | 12.40895 | 34967 ft | 479 kts | 175° |
| 2026-05-07 19:01 | 41.59962 | 12.42604 | 34960 ft | 479 kts | 175° |
| 2026-05-07 19:01 | 41.53427 | 12.44317 | 34956 ft | 479 kts | 175° |
| 2026-05-07 19:02 | 41.46893 | 12.46026 | 34950 ft | 478 kts | 175° |
| 2026-05-07 19:02 | 41.40367 | 12.47730 | 34948 ft | 478 kts | 175° |
| 2026-05-07 19:03 | 41.33837 | 12.49431 | 34943 ft | 478 kts | 175° |
| 2026-05-07 19:03 | 41.27312 | 12.51127 | 34938 ft | 478 kts | 175° |
| 2026-05-07 19:04 | 41.20777 | 12.52822 | 34939 ft | 478 kts | 175° |
| 2026-05-07 19:04 | 41.14237 | 12.54515 | 34937 ft | 479 kts | 176° |
| 2026-05-07 19:05 | 41.07695 | 12.56206 | 34953 ft | 480 kts | 176° |
| 2026-05-07 19:05 | 41.01133 | 12.57898 | 34938 ft | 481 kts | 176° |
| 2026-05-07 19:06 | 40.94563 | 12.59589 | 34948 ft | 481 kts | 176° |
| 2026-05-07 19:06 | 40.84696 | 12.62122 | 34940 ft | 481 kts | 176° |
| 2026-05-07 19:07 | 40.78126 | 12.63806 | 34935 ft | 481 kts | 177° |
| 2026-05-07 19:07 | 40.71609 | 12.65472 | 34937 ft | 479 kts | 177° |
| 2026-05-07 19:08 | 40.65032 | 12.67150 | 34932 ft | 478 kts | 177° |
| 2026-05-07 19:08 | 40.58557 | 12.68799 | 34931 ft | 476 kts | 178° |
| 2026-05-07 19:09 | 40.52095 | 12.70444 | 34918 ft | 468 kts | 178° |
| 2026-05-07 19:09 | 40.45743 | 12.72059 | 34932 ft | 462 kts | 178° |
| 2026-05-07 19:10 | 40.39454 | 12.73647 | 34923 ft | 460 kts | 178° |
| 2026-05-07 19:10 | 40.33182 | 12.75227 | 34923 ft | 459 kts | 178° |
| 2026-05-07 19:11 | 40.26919 | 12.76804 | 34923 ft | 458 kts | 178° |
| 2026-05-07 19:11 | 40.20661 | 12.78377 | 34924 ft | 458 kts | 179° |
| 2026-05-07 19:12 | 40.14397 | 12.79949 | 34925 ft | 459 kts | 179° |
| 2026-05-07 19:12 | 40.08125 | 12.81521 | 34922 ft | 459 kts | 179° |
| 2026-05-07 19:13 | 40.01856 | 12.83090 | 34921 ft | 459 kts | 179° |
| 2026-05-07 19:13 | 39.95595 | 12.84654 | 34925 ft | 458 kts | 179° |
| 2026-05-07 19:14 | 39.89336 | 12.86216 | 34912 ft | 456 kts | 179° |
| 2026-05-07 19:14 | 39.83201 | 12.87754 | 34456 ft | 445 kts | 179° |
| 2026-05-07 19:15 | 39.80159 | 12.88508 | 33810 ft | 445 kts | 179° |
| 2026-05-07 19:15 | 39.77113 | 12.89260 | 32961 ft | 447 kts | 178° |
| 2026-05-07 19:15 | 39.74053 | 12.90013 | 32133 ft | 449 kts | 178° |
| 2026-05-07 19:15 | 39.70967 | 12.90773 | 31290 ft | 452 kts | 178° |
| 2026-05-07 19:16 | 39.67870 | 12.91537 | 30483 ft | 455 kts | 177° |
| 2026-05-07 19:16 | 39.64769 | 12.92305 | 29869 ft | 452 kts | 177° |
| 2026-05-07 19:16 | 39.61684 | 12.93071 | 29154 ft | 450 kts | 176° |
| 2026-05-07 19:16 | 39.58621 | 12.93831 | 28512 ft | 447 kts | 176° |
| 2026-05-07 19:17 | 39.55581 | 12.94584 | 27902 ft | 443 kts | 176° |
| 2026-05-07 19:17 | 39.52565 | 12.95329 | 27315 ft | 440 kts | 175° |
| 2026-05-07 19:17 | 39.49568 | 12.96068 | 26722 ft | 437 kts | 175° |
| 2026-05-07 19:17 | 39.46589 | 12.96800 | 26140 ft | 434 kts | 175° |
| 2026-05-07 19:18 | 39.43628 | 12.97528 | 25565 ft | 432 kts | 175° |
| 2026-05-07 19:18 | 39.40681 | 12.98250 | 25004 ft | 430 kts | 174° |
| 2026-05-07 19:18 | 39.37751 | 12.98968 | 24440 ft | 428 kts | 174° |
| 2026-05-07 19:18 | 39.34830 | 12.99684 | 23872 ft | 427 kts | 174° |
| 2026-05-07 19:19 | 39.31909 | 13.00398 | 23274 ft | 426 kts | 174° |
| 2026-05-07 19:19 | 39.28997 | 13.01111 | 22637 ft | 425 kts | 174° |
| 2026-05-07 19:19 | 39.26106 | 13.01819 | 22057 ft | 422 kts | 174° |
| 2026-05-07 19:19 | 39.23226 | 13.02524 | 21504 ft | 419 kts | 173° |
| 2026-05-07 19:20 | 39.20367 | 13.03222 | 20962 ft | 417 kts | 173° |
| 2026-05-07 19:20 | 39.18485 | 13.03682 | 20607 ft | 415 kts | 173° |
| 2026-05-07 19:20 | 39.15661 | 13.04370 | 20079 ft | 412 kts | 173° |
| 2026-05-07 19:20 | 39.12850 | 13.05055 | 19555 ft | 410 kts | 173° |
| 2026-05-07 19:21 | 39.10055 | 13.05735 | 19033 ft | 408 kts | 173° |
| 2026-05-07 19:21 | 39.07270 | 13.06413 | 18497 ft | 406 kts | 173° |
| 2026-05-07 19:21 | 39.04492 | 13.07088 | 17927 ft | 405 kts | 172° |
| 2026-05-07 19:21 | 39.01728 | 13.07759 | 17350 ft | 403 kts | 172° |
| 2026-05-07 19:22 | 38.98985 | 13.08426 | 16809 ft | 400 kts | 172° |
| 2026-05-07 19:22 | 38.96254 | 13.09089 | 16279 ft | 398 kts | 172° |
| 2026-05-07 19:22 | 38.93545 | 13.09746 | 15760 ft | 395 kts | 172° |
| 2026-05-07 19:22 | 38.90849 | 13.10400 | 15240 ft | 393 kts | 172° |
| 2026-05-07 19:23 | 38.88167 | 13.11048 | 14731 ft | 391 kts | 172° |
| 2026-05-07 19:23 | 38.85499 | 13.11702 | 14225 ft | 390 kts | 171° |
| 2026-05-07 19:23 | 38.82856 | 13.12513 | 13697 ft | 390 kts | 167° |
| 2026-05-07 19:23 | 38.80244 | 13.13428 | 13142 ft | 389 kts | 166° |
| 2026-05-07 19:24 | 38.77641 | 13.14366 | 12613 ft | 388 kts | 166° |
| 2026-05-07 19:24 | 38.75048 | 13.15293 | 12089 ft | 386 kts | 166° |
| 2026-05-07 19:24 | 38.72468 | 13.16202 | 11592 ft | 384 kts | 167° |
| 2026-05-07 19:24 | 38.69902 | 13.17094 | 11098 ft | 382 kts | 167° |
| 2026-05-07 19:25 | 38.67354 | 13.17973 | 10848 ft | 373 kts | 167° |
| 2026-05-07 19:25 | 38.64879 | 13.18824 | 10686 ft | 363 kts | 167° |
| 2026-05-07 19:25 | 38.62543 | 13.19627 | 10503 ft | 339 kts | 167° |
| 2026-05-07 19:25 | 38.60338 | 13.20385 | 10354 ft | 310 kts | 167° |
| 2026-05-07 19:26 | 38.58370 | 13.21059 | 10219 ft | 284 kts | 167° |
| 2026-05-07 19:26 | 38.56542 | 13.21685 | 10106 ft | 261 kts | 168° |
| 2026-05-07 19:26 | 38.54788 | 13.22282 | 10048 ft | 268 kts | 167° |
| 2026-05-07 19:26 | 38.52979 | 13.23099 | 10011 ft | 280 kts | 160° |
| 2026-05-07 19:27 | 38.51182 | 13.24096 | 9955 ft | 281 kts | 159° |
| 2026-05-07 19:27 | 38.49422 | 13.25076 | 9883 ft | 270 kts | 159° |
| 2026-05-07 19:27 | 38.47719 | 13.25783 | 9857 ft | 247 kts | 181° |
| 2026-05-07 19:27 | 38.46095 | 13.25398 | 9882 ft | 236 kts | 210° |
| 2026-05-07 19:28 | 38.44774 | 13.24199 | 9799 ft | 233 kts | 225° |
| 2026-05-07 19:28 | 38.43812 | 13.22566 | 9479 ft | 231 kts | 244° |
| 2026-05-07 19:28 | 38.43161 | 13.20704 | 9052 ft | 228 kts | 242° |
| 2026-05-07 19:28 | 38.42120 | 13.19216 | 8431 ft | 232 kts | 209° |
| 2026-05-07 19:29 | 38.40562 | 13.18717 | 7986 ft | 234 kts | 180° |
| 2026-05-07 19:29 | 38.38976 | 13.19142 | 7628 ft | 233 kts | 162° |
| 2026-05-07 19:29 | 38.37493 | 13.19923 | 7406 ft | 229 kts | 159° |
| 2026-05-07 19:29 | 38.36029 | 13.20732 | 7246 ft | 231 kts | 159° |
| 2026-05-07 19:30 | 38.34649 | 13.21781 | 7041 ft | 236 kts | 135° |
| 2026-05-07 19:30 | 38.33859 | 13.23609 | 6893 ft | 242 kts | 102° |
| 2026-05-07 19:30 | 38.33993 | 13.25726 | 6706 ft | 241 kts | 70° |
| 2026-05-07 19:30 | 38.34636 | 13.27660 | 6571 ft | 234 kts | 67° |
| 2026-05-07 19:31 | 38.35274 | 13.29545 | 6465 ft | 234 kts | 68° |
| 2026-05-07 19:31 | 38.35924 | 13.31477 | 6112 ft | 240 kts | 68° |
| 2026-05-07 19:31 | 38.36582 | 13.33426 | 5637 ft | 236 kts | 68° |
| 2026-05-07 19:31 | 38.37218 | 13.35315 | 5175 ft | 227 kts | 68° |
| 2026-05-07 19:32 | 38.37825 | 13.37131 | 4714 ft | 219 kts | 68° |
| 2026-05-07 19:32 | 38.38412 | 13.38889 | 4231 ft | 211 kts | 69° |
| 2026-05-07 19:32 | 38.38610 | 13.40670 | 3729 ft | 202 kts | 106° |
| 2026-05-07 19:32 | 38.37947 | 13.42165 | 3239 ft | 194 kts | 141° |
| 2026-05-07 19:33 | 38.36826 | 13.43085 | 3073 ft | 192 kts | 161° |
| 2026-05-07 19:33 | 38.35567 | 13.43638 | 3068 ft | 192 kts | 165° |
| 2026-05-07 19:33 | 38.34294 | 13.44155 | 3000 ft | 192 kts | 165° |
| 2026-05-07 19:33 | 38.33032 | 13.44667 | 3008 ft | 189 kts | 165° |
| 2026-05-07 19:34 | 38.31776 | 13.45180 | 3011 ft | 189 kts | 166° |
| 2026-05-07 19:34 | 38.30504 | 13.45256 | 2992 ft | 183 kts | 200° |
| 2026-05-07 19:34 | 38.29453 | 13.44364 | 3003 ft | 185 kts | 233° |
| 2026-05-07 19:34 | 38.28886 | 13.42906 | 3013 ft | 186 kts | 248° |
| 2026-05-07 19:35 | 38.28376 | 13.41379 | 3013 ft | 189 kts | 247° |
| 2026-05-07 19:35 | 38.27866 | 13.39856 | 2989 ft | 186 kts | 246° |
| 2026-05-07 19:35 | 38.27364 | 13.38348 | 2989 ft | 185 kts | 246° |
| 2026-05-07 19:35 | 38.26864 | 13.36855 | 2994 ft | 182 kts | 246° |
| 2026-05-07 19:36 | 38.26376 | 13.35394 | 2988 ft | 176 kts | 246° |
| 2026-05-07 19:36 | 38.25909 | 13.33986 | 3012 ft | 173 kts | 246° |
| 2026-05-07 19:36 | 38.25438 | 13.32569 | 2994 ft | 171 kts | 246° |
| 2026-05-07 19:36 | 38.24987 | 13.31213 | 2991 ft | 168 kts | 246° |
| 2026-05-07 19:37 | 38.24518 | 13.29805 | 3004 ft | 173 kts | 246° |
| 2026-05-07 19:37 | 38.24031 | 13.28344 | 2770 ft | 182 kts | 246° |
| 2026-05-07 19:37 | 38.23543 | 13.26881 | 2536 ft | 176 kts | 246° |
| 2026-05-07 19:37 | 38.23080 | 13.25492 | 2299 ft | 164 kts | 246° |
| 2026-05-07 19:38 | 38.22642 | 13.24186 | 2091 ft | 167 kts | 247° |
| 2026-05-07 19:38 | 38.22178 | 13.22799 | 1881 ft | 173 kts | 247° |
| 2026-05-07 19:38 | 38.21711 | 13.21407 | 1664 ft | 169 kts | 248° |
| 2026-05-07 19:38 | 38.21260 | 13.20022 | 1401 ft | 166 kts | 249° |
| 2026-05-07 19:39 | 38.20851 | 13.18653 | 1102 ft | 165 kts | 250° |
| 2026-05-07 19:39 | 38.20410 | 13.17376 | 819 ft | 154 kts | 242° |
| 2026-05-07 19:39 | 38.19957 | 13.16161 | 637 ft | 147 kts | 245° |
| 2026-05-07 19:39 | 38.19548 | 13.14966 | 623 ft | 153 kts | 247° |
| 2026-05-07 19:40 | 38.19125 | 13.13682 | 403 ft | 152 kts | 245° |
| 2026-05-07 19:40 | 38.18728 | 13.12533 | 199 ft | 139 kts | 246° |
| 2026-05-07 19:40 | 38.18368 | 13.11455 | 60 ft | 131 kts | 245° |
| 2026-05-07 19:40 | 38.18064 | 13.10552 | 59 ft | 84 kts | 246° |
| 2026-05-07 19:41 | 38.17883 | 13.10009 | 55 ft | 61 kts | 248° |
| 2026-05-07 19:41 | 38.17749 | 13.09611 | 52 ft | 45 kts | 248° |
| 2026-05-07 19:41 | 38.17637 | 13.09265 | 51 ft | 40 kts | 247° |
| 2026-05-07 19:41 | 38.17541 | 13.08982 | 50 ft | 17 kts | 246° |
| 2026-05-07 19:42 | 38.17499 | 13.08842 | 50 ft | 17 kts | 256° |
| 2026-05-07 19:42 | 38.17542 | 13.08767 | 53 ft | 8 kts | 27° |
| 2026-05-07 19:42 | 38.17585 | 13.08807 | 52 ft | 8 kts | 38° |
| 2026-05-07 19:42 | 38.17629 | 13.08849 | 56 ft | 8 kts | 37° |
| 2026-05-07 19:43 | 38.17648 | 13.08867 | 57 ft | 0 kts | 37° |
| 2026-05-07 19:44 | 38.17658 | 13.08876 | 57 ft | 6 kts | 37° |
| 2026-05-07 19:44 | 38.17717 | 13.08936 | 57 ft | 15 kts | 44° |
| 2026-05-07 19:44 | 38.17769 | 13.09047 | 58 ft | 15 kts | 67° |
| 2026-05-07 19:44 | 38.17813 | 13.09178 | 56 ft | 18 kts | 66° |
| 2026-05-07 19:45 | 38.17866 | 13.09336 | 54 ft | 20 kts | 68° |
| 2026-05-07 19:45 | 38.17920 | 13.09496 | 59 ft | 20 kts | 66° |
| 2026-05-07 19:45 | 38.17974 | 13.09654 | 59 ft | 20 kts | 66° |
| 2026-05-07 19:45 | 38.18023 | 13.09816 | 59 ft | 20 kts | 73° |
| 2026-05-07 19:46 | 38.18070 | 13.09977 | 59 ft | 20 kts | 58° |
| 2026-05-07 19:46 | 38.18132 | 13.10131 | 59 ft | 19 kts | 67° |
| 2026-05-07 19:46 | 38.18186 | 13.10288 | 63 ft | 19 kts | 66° |
| 2026-05-07 19:46 | 38.18240 | 13.10446 | 60 ft | 19 kts | 66° |
| 2026-05-07 19:47 | 38.18293 | 13.10604 | 62 ft | 19 kts | 67° |
| 2026-05-07 19:47 | 38.18347 | 13.10762 | 60 ft | 19 kts | 66° |
| 2026-05-07 19:47 | 38.18401 | 13.10920 | 61 ft | 19 kts | 66° |
| 2026-05-07 19:47 | 38.18450 | 13.11078 | 60 ft | 18 kts | 68° |
| 2026-05-07 19:48 | 38.18493 | 13.11184 | 63 ft | 12 kts | 43° |
| 2026-05-07 19:48 | 38.18547 | 13.11170 | 62 ft | 8 kts | 301° |
| 2026-05-07 19:48 | 38.18580 | 13.11116 | 63 ft | 8 kts | 321° |
| 2026-05-07 19:48 | 38.18630 | 13.11103 | 64 ft | 8 kts | 22° |
| 2026-05-07 19:49 | 38.18652 | 13.11154 | 60 ft | 7 kts | 69° |
| 2026-05-07 19:49 | 38.18660 | 13.11177 | 64 ft | 3 kts | 66° |
| 2026-05-07 19:49 | 38.18661 | 13.11178 | 64 ft | 0 kts | 66° |
| 2026-05-07 19:49 | 38.18662 | 13.11181 | 64 ft | 0 kts | 66° |